Time;durP1;ratioP1;P1;durP2;ratioP2;P2;SDS_P1;SDS_P2;PMS_P1;PMS_P2;Temp;Humidity;BMP_temperature;BMP_pressure;BME280_temperature;BME280_humidity;BME280_pressure;Samples;Min_cycle;Max_cycle;Signal;HPM_P1;HPM_P2
2023/05/15 00:02:09;;;;;;;26.98;13.68;;;;;;;;;;5091998;28;20024;-76
2023/05/15 00:04:35;;;;;;;23.45;13.10;;;;;;;;;;5092264;28;20024;-76
2023/05/15 00:07:01;;;;;;;22.70;12.15;;;;;;;;;;5074222;28;20036;-76
2023/05/15 00:09:33;;;;;;;20.35;12.43;;;;;;;;;;5091554;28;20024;-76
2023/05/15 00:11:59;;;;;;;22.80;12.60;;;;;;;;;;5091810;28;20081;-76
2023/05/15 00:14:25;;;;;;;20.80;12.48;;;;;;;;;;5091373;28;20040;-76
2023/05/15 00:16:51;;;;;;;26.45;12.82;;;;;;;;;;5091958;28;20081;-76
2023/05/15 00:19:17;;;;;;;20.52;12.45;;;;;;;;;;5092043;28;20034;-76
2023/05/15 00:21:43;;;;;;;25.70;13.93;;;;;;;;;;5091751;28;20106;-76
2023/05/15 00:24:09;;;;;;;29.90;13.60;;;;;;;;;;5091784;28;20032;-76
2023/05/15 00:26:35;;;;;;;26.23;14.02;;;;;;;;;;5091690;28;20034;-76
2023/05/15 00:29:01;;;;;;;23.08;12.60;;;;;;;;;;5092062;28;20016;-76
2023/05/15 00:31:27;;;;;;;28.60;13.93;;;;;;;;;;5091622;28;20100;-76
2023/05/15 00:33:53;;;;;;;27.65;14.50;;;;;;;;;;5091816;28;20487;-76
2023/05/15 00:36:20;;;;;;;24.42;13.25;;;;;;;;;;5091520;28;20032;-76
2023/05/15 00:38:46;;;;;;;26.63;13.18;;;;;;;;;;5092051;28;20024;-76
2023/05/15 00:41:13;;;;;;;23.63;12.60;;;;;;;;;;5091751;28;20035;-76
2023/05/15 00:43:39;;;;;;;26.60;13.75;;;;;;;;;;5091709;28;20028;-76
2023/05/15 00:46:06;;;;;;;24.90;13.25;;;;;;;;;;5091744;28;20053;-76
2023/05/15 00:48:33;;;;;;;28.13;13.65;;;;;;;;;;5091782;28;20026;-76
2023/05/15 00:50:59;;;;;;;25.08;12.40;;;;;;;;;;5091631;28;20028;-76
2023/05/15 00:53:27;;;;;;;26.20;13.25;;;;;;;;;;5091356;28;20374;-76
2023/05/15 00:55:57;;;;;;;30.17;11.00;;;;;;;;;;5094970;28;20024;-76
2023/05/15 00:58:26;;;;;;;22.98;9.07;;;;;;;;;;5095226;28;20591;-76
2023/05/15 01:00:52;;;;;;;23.35;7.30;;;;;;;;;;5095207;28;20024;-76
2023/05/15 01:03:18;;;;;;;28.40;6.88;;;;;;;;;;5095073;28;20490;-76
2023/05/15 01:05:44;;;;;;;12.80;7.32;;;;;;;;;;5095080;28;20129;-76
2023/05/15 01:08:16;;;;;;;14.23;8.02;;;;;;;;;;5094945;28;20020;-76
2023/05/15 01:10:42;;;;;;;16.95;8.48;;;;;;;;;;5094983;28;20120;-76
2023/05/15 01:13:15;;;;;;;14.75;8.75;;;;;;;;;;5094895;28;20052;-76
2023/05/15 01:15:41;;;;;;;18.52;9.68;;;;;;;;;;5093810;28;20122;-76
2023/05/15 01:18:07;;;;;;;17.88;10.00;;;;;;;;;;5094662;28;20155;-76
2023/05/15 01:20:39;;;;;;;16.55;9.32;;;;;;;;;;5094714;28;20107;-76
2023/05/15 01:23:09;;;;;;;17.40;9.93;;;;;;;;;;5094534;28;20024;-76
2023/05/15 01:26:01;;;;;;;24.83;12.00;;;;;;;;;;5094603;28;20417;-76
2023/05/15 01:28:37;;;;;;;20.52;11.85;;;;;;;;;;5094627;28;20049;-76
2023/05/15 01:31:10;;;;;;;22.08;11.85;;;;;;;;;;5094387;28;20032;-76
2023/05/15 01:33:40;;;;;;;25.40;13.38;;;;;;;;;;5094856;28;20031;-76
2023/05/15 01:36:09;;;;;;;26.88;12.98;;;;;;;;;;5086319;28;20070;-76
2023/05/15 01:38:40;;;;;;;22.08;11.70;;;;;;;;;;5089560;28;20020;-76
2023/05/15 01:41:10;;;;;;;24.38;11.63;;;;;;;;;;5076272;28;20426;-76
2023/05/15 01:43:39;;;;;;;20.52;12.20;;;;;;;;;;5094218;28;20024;-76
2023/05/15 01:46:05;;;;;;;24.40;13.75;;;;;;;;;;5094669;28;20040;-76
2023/05/15 01:48:33;;;;;;;25.20;13.52;;;;;;;;;;5094235;28;20438;-76
2023/05/15 01:51:02;;;;;;;20.80;12.20;;;;;;;;;;5094124;28;20028;-76
2023/05/15 01:53:30;;;;;;;22.33;12.55;;;;;;;;;;5094345;28;20532;-76
2023/05/15 01:55:56;;;;;;;23.17;14.07;;;;;;;;;;5093913;28;20444;-76
2023/05/15 01:58:24;;;;;;;25.83;12.57;;;;;;;;;;5094005;28;20032;-76
2023/05/15 02:00:50;;;;;;;22.08;13.23;;;;;;;;;;5093931;28;20043;-76
2023/05/15 02:03:16;;;;;;;22.90;13.35;;;;;;;;;;5093862;28;20028;-76
2023/05/15 02:05:42;;;;;;;22.05;12.82;;;;;;;;;;5093113;28;20113;-76
2023/05/15 02:08:08;;;;;;;24.15;14.45;;;;;;;;;;5093532;28;20049;-76
2023/05/15 02:10:35;;;;;;;27.20;15.68;;;;;;;;;;5080978;28;20056;-76
2023/05/15 02:13:01;;;;;;;20.50;12.93;;;;;;;;;;5092896;28;20035;-76
2023/05/15 02:15:28;;;;;;;25.13;14.23;;;;;;;;;;5093305;28;20431;-76
2023/05/15 02:17:54;;;;;;;21.05;13.15;;;;;;;;;;5075323;28;20069;-76
2023/05/15 02:20:20;;;;;;;25.90;14.52;;;;;;;;;;5093876;28;20028;-76
2023/05/15 02:22:46;;;;;;;21.42;13.20;;;;;;;;;;5093435;28;20034;-76
2023/05/15 02:25:13;;;;;;;21.50;13.35;;;;;;;;;;5093418;28;20434;-76
2023/05/15 02:27:55;;;;;;;22.05;13.15;;;;;;;;;;5093570;28;20895;-76
2023/05/15 02:30:25;;;;;;;19.40;12.30;;;;;;;;;;5093465;28;20051;-76
2023/05/15 02:32:51;;;;;;;21.83;12.77;;;;;;;;;;5093697;28;20450;-76
2023/05/15 02:35:31;;;;;;;22.88;12.65;;;;;;;;;;5093394;28;20024;-76
2023/05/15 02:38:00;;;;;;;24.42;12.60;;;;;;;;;;5093713;28;20107;-76
2023/05/15 02:40:27;;;;;;;21.48;12.77;;;;;;;;;;5093233;28;20051;-76
2023/05/15 02:42:53;;;;;;;21.60;13.07;;;;;;;;;;5093109;28;20043;-76
2023/05/15 02:45:20;;;;;;;21.73;13.13;;;;;;;;;;5092967;28;20440;-76
2023/05/15 02:47:49;;;;;;;23.90;13.02;;;;;;;;;;5093132;28;20039;-76
2023/05/15 02:50:15;;;;;;;21.42;12.25;;;;;;;;;;5093205;28;20016;-76
2023/05/15 02:52:41;;;;;;;19.55;11.60;;;;;;;;;;5092910;28;20024;-76
2023/05/15 02:55:07;;;;;;;23.40;13.60;;;;;;;;;;5091825;28;20024;-76
2023/05/15 02:57:33;;;;;;;20.08;12.73;;;;;;;;;;5092657;28;20039;-76
2023/05/15 03:00:00;;;;;;;22.25;13.90;;;;;;;;;;5092733;28;20028;-76
2023/05/15 03:02:26;;;;;;;24.63;12.73;;;;;;;;;;5092568;28;20054;-76
2023/05/15 03:04:52;;;;;;;24.52;13.57;;;;;;;;;;5092711;28;20048;-76
2023/05/15 03:07:18;;;;;;;23.73;14.13;;;;;;;;;;5077808;28;20067;-76
2023/05/15 03:09:44;;;;;;;26.67;14.13;;;;;;;;;;5092619;28;20073;-76
2023/05/15 03:12:10;;;;;;;28.33;15.30;;;;;;;;;;5092342;28;20031;-76
2023/05/15 03:14:36;;;;;;;26.85;16.58;;;;;;;;;;5091616;28;20046;-76
2023/05/15 03:17:02;;;;;;;26.70;15.95;;;;;;;;;;5092170;28;20111;-76
2023/05/15 03:19:30;;;;;;;23.85;14.77;;;;;;;;;;5092469;28;20020;-76
2023/05/15 03:21:58;;;;;;;27.85;16.48;;;;;;;;;;5092274;28;20047;-76
2023/05/15 03:24:24;;;;;;;26.52;16.15;;;;;;;;;;5092088;28;20032;-76
2023/05/15 03:26:50;;;;;;;27.63;17.33;;;;;;;;;;5092098;28;20089;-76
2023/05/15 03:29:16;;;;;;;26.20;16.20;;;;;;;;;;5092148;28;20024;-76
2023/05/15 03:31:42;;;;;;;25.10;15.77;;;;;;;;;;5092317;28;20111;-76
2023/05/15 03:34:08;;;;;;;23.95;16.15;;;;;;;;;;5091901;28;20028;-76
2023/05/15 03:36:34;;;;;;;27.95;16.83;;;;;;;;;;5092067;28;20036;-76
2023/05/15 03:39:00;;;;;;;27.20;17.23;;;;;;;;;;5091999;28;20077;-76
2023/05/15 03:41:26;;;;;;;26.17;16.27;;;;;;;;;;5092104;28;20035;-76
2023/05/15 03:43:52;;;;;;;26.17;16.27;;;;;;;;;;5086389;28;20092;-76
2023/05/15 03:46:18;;;;;;;27.95;16.92;;;;;;;;;;5092370;28;20028;-76
2023/05/15 03:48:44;;;;;;;27.13;17.73;;;;;;;;;;5092048;28;20402;-76
2023/05/15 03:51:10;;;;;;;28.10;17.95;;;;;;;;;;5091995;28;20026;-76
2023/05/15 03:53:36;;;;;;;32.88;19.00;;;;;;;;;;5087278;28;20033;-76
2023/05/15 03:56:02;;;;;;;29.85;18.50;;;;;;;;;;5083458;28;20078;-76
2023/05/15 03:58:30;;;;;;;29.95;19.33;;;;;;;;;;5092005;28;20103;-75
2023/05/15 04:00:56;;;;;;;31.38;19.77;;;;;;;;;;5092460;28;20354;-76
2023/05/15 04:03:22;;;;;;;33.25;18.67;;;;;;;;;;5091718;28;20514;-76
2023/05/15 04:05:49;;;;;;;31.55;18.23;;;;;;;;;;5091931;28;20096;-76
2023/05/15 04:08:15;;;;;;;35.67;20.88;;;;;;;;;;5092110;28;20052;-76
2023/05/15 04:10:41;;;;;;;36.85;19.85;;;;;;;;;;5091985;28;20119;-77
2023/05/15 04:13:07;;;;;;;34.58;19.65;;;;;;;;;;5091738;28;20132;-76
2023/05/15 04:15:34;;;;;;;34.70;20.15;;;;;;;;;;5090861;28;20052;-76
2023/05/15 04:18:00;;;;;;;32.83;19.50;;;;;;;;;;5091301;28;20032;-76
2023/05/15 04:20:27;;;;;;;32.10;19.33;;;;;;;;;;5091355;28;20501;-76
2023/05/15 04:22:54;;;;;;;28.58;17.90;;;;;;;;;;5091767;28;20493;-76
2023/05/15 04:25:20;;;;;;;35.30;19.38;;;;;;;;;;5091892;28;20028;-76
2023/05/15 04:27:46;;;;;;;30.70;17.85;;;;;;;;;;5073680;28;20048;-76
2023/05/15 04:30:12;;;;;;;32.17;18.17;;;;;;;;;;5093709;28;20429;-76
2023/05/15 04:32:39;;;;;;;30.73;17.73;;;;;;;;;;5085973;28;20044;-76
2023/05/15 04:35:08;;;;;;;29.45;16.98;;;;;;;;;;5094656;28;20024;-76
2023/05/15 04:37:35;;;;;;;27.58;16.80;;;;;;;;;;5082846;28;20024;-77
2023/05/15 04:40:01;;;;;;;28.65;16.77;;;;;;;;;;5095496;28;20020;-76
2023/05/15 04:42:28;;;;;;;29.70;17.90;;;;;;;;;;5095581;28;20027;-75
2023/05/15 04:44:54;;;;;;;24.63;16.40;;;;;;;;;;5087203;28;20351;-76
2023/05/15 04:47:20;;;;;;;29.98;17.27;;;;;;;;;;5093582;28;20036;-76
2023/05/15 04:49:49;;;;;;;26.23;15.50;;;;;;;;;;5089053;28;20028;-76
2023/05/15 04:52:15;;;;;;;24.60;14.70;;;;;;;;;;5095238;28;20023;-76
2023/05/15 04:54:41;;;;;;;26.50;14.00;;;;;;;;;;5087738;28;20021;-76
2023/05/15 04:57:07;;;;;;;23.77;14.20;;;;;;;;;;5089395;28;20077;-76
2023/05/15 04:59:40;;;;;;;23.67;15.23;;;;;;;;;;5094978;28;20032;-76
2023/05/15 05:02:05;;;;;;;22.88;13.40;;;;;;;;;;5095200;28;20112;-76
2023/05/15 05:04:32;;;;;;;19.42;12.95;;;;;;;;;;5095250;28;20051;-76
2023/05/15 05:06:58;;;;;;;21.15;13.35;;;;;;;;;;5075300;28;20031;-76
2023/05/15 05:09:24;;;;;;;19.98;12.70;;;;;;;;;;5087905;28;20100;-76
2023/05/15 05:11:50;;;;;;;21.77;14.10;;;;;;;;;;5095566;28;20039;-76
2023/05/15 05:14:16;;;;;;;21.15;13.75;;;;;;;;;;5093464;28;20024;-77
2023/05/15 05:16:44;;;;;;;27.05;16.23;;;;;;;;;;5094947;28;20085;-76
2023/05/15 05:19:10;;;;;;;21.48;13.45;;;;;;;;;;5094436;28;20024;-76
2023/05/15 05:21:36;;;;;;;21.08;14.13;;;;;;;;;;5082305;28;20081;-76
2023/05/15 05:24:02;;;;;;;25.65;15.45;;;;;;;;;;5094778;28;20021;-76
2023/05/15 05:26:28;;;;;;;24.25;16.05;;;;;;;;;;5094664;28;20627;-76
2023/05/15 05:28:54;;;;;;;24.73;15.95;;;;;;;;;;5094712;28;20098;-76
2023/05/15 05:31:21;;;;;;;28.15;17.63;;;;;;;;;;5094570;28;20064;-76
2023/05/15 05:33:48;;;;;;;22.83;14.98;;;;;;;;;;5094709;28;20478;-76
2023/05/15 05:36:14;;;;;;;25.25;16.98;;;;;;;;;;5094765;28;20148;-76
2023/05/15 05:38:41;;;;;;;25.33;14.82;;;;;;;;;;5094463;28;20020;-76
2023/05/15 05:41:07;;;;;;;22.55;14.85;;;;;;;;;;5094457;28;20024;-76
2023/05/15 05:43:33;;;;;;;19.50;14.40;;;;;;;;;;5094523;28;20017;-76
2023/05/15 05:45:59;;;;;;;21.92;13.38;;;;;;;;;;5094308;28;20406;-76
2023/05/15 05:48:25;;;;;;;21.08;14.15;;;;;;;;;;5094265;28;20028;-76
2023/05/15 05:50:51;;;;;;;18.92;12.55;;;;;;;;;;5094495;28;20027;-76
2023/05/15 05:53:17;;;;;;;15.70;10.63;;;;;;;;;;5094411;28;20020;-76
2023/05/15 05:55:43;;;;;;;15.63;9.90;;;;;;;;;;5094299;28;20367;-76
2023/05/15 05:58:10;;;;;;;18.90;12.68;;;;;;;;;;5094001;28;20036;-76
2023/05/15 06:00:36;;;;;;;16.83;11.10;;;;;;;;;;5091202;28;20032;-76
2023/05/15 06:03:02;;;;;;;17.08;12.82;;;;;;;;;;5084664;28;20419;-76
2023/05/15 06:05:28;;;;;;;16.25;10.73;;;;;;;;;;5086956;28;20483;-76
2023/05/15 06:07:55;;;;;;;16.52;11.95;;;;;;;;;;5087720;28;20012;-76
2023/05/15 06:10:21;;;;;;;14.00;10.15;;;;;;;;;;5093750;28;20031;-76
2023/05/15 06:12:48;;;;;;;6.50;5.53;;;;;;;;;;5093808;28;20024;-76
2023/05/15 06:15:14;;;;;;;11.70;9.30;;;;;;;;;;5092317;28;20060;-76
2023/05/15 06:17:40;;;;;;;13.23;9.77;;;;;;;;;;5087811;28;20033;-76
2023/05/15 06:20:07;;;;;;;11.45;7.50;;;;;;;;;;5081878;28;20422;-76
2023/05/15 06:22:34;;;;;;;12.27;9.68;;;;;;;;;;5088290;28;20016;-76
2023/05/15 06:25:01;;;;;;;15.15;11.18;;;;;;;;;;5075490;28;20101;-76
2023/05/15 06:27:28;;;;;;;11.73;9.40;;;;;;;;;;5093623;28;20031;-76
2023/05/15 06:29:54;;;;;;;17.00;13.02;;;;;;;;;;5093672;28;20016;-76
2023/05/15 06:32:20;;;;;;;16.58;11.02;;;;;;;;;;5093343;28;20500;-76
2023/05/15 06:34:46;;;;;;;10.65;8.10;;;;;;;;;;5093541;28;20028;-76
2023/05/15 06:37:12;;;;;;;8.13;6.65;;;;;;;;;;5065508;28;20025;-76
2023/05/15 06:39:38;;;;;;;14.10;9.73;;;;;;;;;;5089708;28;20027;-76
2023/05/15 06:42:05;;;;;;;11.50;7.72;;;;;;;;;;5093255;28;20106;-76
2023/05/15 06:44:31;;;;;;;12.68;9.55;;;;;;;;;;5093549;28;20020;-76
2023/05/15 06:46:57;;;;;;;13.20;10.20;;;;;;;;;;5075115;28;20080;-76
2023/05/15 06:49:23;;;;;;;14.32;10.98;;;;;;;;;;5093105;28;20035;-76
2023/05/15 06:51:49;;;;;;;11.23;9.25;;;;;;;;;;5092780;28;20028;-76
2023/05/15 06:54:16;;;;;;;15.07;11.25;;;;;;;;;;5071318;28;20028;-76
2023/05/15 06:56:42;;;;;;;11.63;9.20;;;;;;;;;;5082999;28;20102;-76
2023/05/15 06:59:08;;;;;;;10.15;8.52;;;;;;;;;;5092812;28;20025;-76
2023/05/15 07:01:33;;;;;;;10.45;8.35;;;;;;;;;;5074771;28;20085;-76
2023/05/15 07:04:03;;;;;;;8.70;7.30;;;;;;;;;;5093001;28;20024;-76
2023/05/15 07:06:30;;;;;;;13.65;9.18;;;;;;;;;;5080548;28;20036;-76
2023/05/15 07:08:56;;;;;;;11.75;9.30;;;;;;;;;;5093052;28;20026;-76
2023/05/15 07:11:22;;;;;;;11.85;10.65;;;;;;;;;;5092753;28;20578;-77
2023/05/15 07:13:48;;;;;;;11.32;9.82;;;;;;;;;;5092680;28;20096;-77
2023/05/15 07:16:14;;;;;;;12.32;9.65;;;;;;;;;;5090083;28;20044;-77
2023/05/15 07:18:40;;;;;;;17.08;11.95;;;;;;;;;;5092655;28;20024;-77
2023/05/15 07:21:06;;;;;;;17.35;12.85;;;;;;;;;;5092502;28;20055;-77
2023/05/15 07:23:32;;;;;;;11.45;10.25;;;;;;;;;;5092623;28;20032;-77
2023/05/15 07:25:58;;;;;;;14.70;11.25;;;;;;;;;;5092678;28;20549;-77
2023/05/15 07:28:24;;;;;;;13.23;9.82;;;;;;;;;;5092595;28;20034;-77
2023/05/15 07:30:51;;;;;;;14.48;12.70;;;;;;;;;;5089567;28;20043;-77
2023/05/15 07:33:17;;;;;;;12.52;10.70;;;;;;;;;;5092826;28;20020;-78
2023/05/15 07:35:43;;;;;;;14.13;11.27;;;;;;;;;;5092396;28;20055;-77
2023/05/15 07:38:09;;;;;;;14.98;13.20;;;;;;;;;;5092388;28;20035;-77
2023/05/15 07:40:35;;;;;;;14.27;11.02;;;;;;;;;;5074208;28;20062;-77
2023/05/15 07:43:01;;;;;;;12.65;10.70;;;;;;;;;;5092307;28;20024;-77
2023/05/15 07:45:27;;;;;;;12.63;10.20;;;;;;;;;;5092278;28;20024;-77
2023/05/15 07:47:54;;;;;;;10.95;9.40;;;;;;;;;;5074217;28;20024;-77
2023/05/15 07:50:20;;;;;;;14.20;11.20;;;;;;;;;;5073614;28;20031;-77
2023/05/15 07:52:46;;;;;;;15.27;13.35;;;;;;;;;;5091868;28;20132;-77
2023/05/15 07:55:12;;;;;;;15.98;13.18;;;;;;;;;;5091545;28;20441;-77
2023/05/15 07:57:38;;;;;;;19.05;13.52;;;;;;;;;;5087479;28;20028;-77
2023/05/15 08:00:09;;;;;;;19.83;13.10;;;;;;;;;;5092135;28;20017;-77
2023/05/15 08:02:35;;;;;;;15.18;12.50;;;;;;;;;;5067520;28;20063;-77
2023/05/15 08:05:02;;;;;;;17.05;12.98;;;;;;;;;;5094098;28;20022;-77
2023/05/15 08:07:30;;;;;;;19.13;13.60;;;;;;;;;;5096275;28;20099;-77
2023/05/15 08:09:57;;;;;;;14.27;11.93;;;;;;;;;;5095846;28;20093;-77
2023/05/15 08:12:23;;;;;;;15.20;13.60;;;;;;;;;;5096245;28;20024;-77
2023/05/15 08:14:50;;;;;;;11.95;10.00;;;;;;;;;;5107917;28;20146;-77
2023/05/15 08:17:16;;;;;;;14.73;11.95;;;;;;;;;;5087028;28;20027;-77
2023/05/15 08:19:42;;;;;;;14.23;12.15;;;;;;;;;;5094819;28;20490;-77
2023/05/15 08:22:08;;;;;;;17.10;13.20;;;;;;;;;;5087087;28;20746;-77
2023/05/15 08:24:34;;;;;;;16.02;12.60;;;;;;;;;;5095809;28;20029;-77
2023/05/15 08:27:00;;;;;;;18.13;13.75;;;;;;;;;;5095976;28;20020;-77
2023/05/15 08:29:26;;;;;;;18.70;15.25;;;;;;;;;;5095813;28;20616;-77
2023/05/15 08:31:52;;;;;;;18.92;14.43;;;;;;;;;;5095811;28;20023;-77
2023/05/15 08:34:18;;;;;;;16.20;14.18;;;;;;;;;;5095872;28;20024;-77
2023/05/15 08:36:44;;;;;;;18.17;13.57;;;;;;;;;;5087430;28;20032;-77
2023/05/15 08:39:10;;;;;;;15.77;14.07;;;;;;;;;;5095736;28;20028;-77
2023/05/15 08:41:40;;;;;;;18.30;12.48;;;;;;;;;;5095640;28;20359;-77
2023/05/15 08:44:07;;;;;;;14.82;11.55;;;;;;;;;;5095694;28;20059;-77
2023/05/15 08:46:34;;;;;;;14.65;10.93;;;;;;;;;;5090196;28;20031;-77
2023/05/15 08:49:02;;;;;;;14.45;11.63;;;;;;;;;;5096032;28;20035;-77
2023/05/15 08:51:29;;;;;;;13.43;11.27;;;;;;;;;;5095215;28;20024;-77
2023/05/15 08:53:56;;;;;;;15.18;11.73;;;;;;;;;;5095369;28;20012;-77
2023/05/15 08:56:22;;;;;;;12.90;10.75;;;;;;;;;;5087477;28;20037;-77
2023/05/15 08:58:48;;;;;;;13.48;10.32;;;;;;;;;;5090001;28;20103;-77
2023/05/15 09:01:15;;;;;;;13.10;11.68;;;;;;;;;;5095241;28;20111;-77
2023/05/15 09:03:41;;;;;;;14.25;10.90;;;;;;;;;;5095245;28;20028;-77
2023/05/15 09:06:08;;;;;;;12.80;10.95;;;;;;;;;;5095228;28;20077;-77
2023/05/15 09:08:35;;;;;;;13.45;12.05;;;;;;;;;;5095269;28;20382;-77
2023/05/15 09:11:03;;;;;;;12.93;11.52;;;;;;;;;;5095219;28;20035;-77
2023/05/15 09:13:30;;;;;;;11.35;10.02;;;;;;;;;;5095280;28;20463;-77
2023/05/15 09:15:58;;;;;;;10.35;9.32;;;;;;;;;;5092387;28;20391;-77
2023/05/15 09:18:24;;;;;;;13.38;10.73;;;;;;;;;;5093795;28;20427;-77
2023/05/15 09:20:51;;;;;;;14.18;11.95;;;;;;;;;;5093564;28;20051;-77
2023/05/15 09:23:25;;;;;;;12.15;9.95;;;;;;;;;;5093195;28;20016;-77
2023/05/15 09:25:52;;;;;;;13.20;11.18;;;;;;;;;;5080509;28;20040;-77
2023/05/15 09:28:33;;;;;;;12.80;10.73;;;;;;;;;;5094029;28;20027;-77
2023/05/15 09:30:59;;;;;;;15.38;11.32;;;;;;;;;;5086726;28;20035;-77
2023/05/15 09:33:33;;;;;;;12.07;10.80;;;;;;;;;;5079757;28;20150;-77
2023/05/15 09:36:00;;;;;;;14.75;11.30;;;;;;;;;;5082760;28;20029;-77
2023/05/15 09:38:27;;;;;;;14.32;11.50;;;;;;;;;;5057097;28;20028;-77
2023/05/15 09:41:07;;;;;;;12.80;10.35;;;;;;;;;;5080938;28;20040;-77
2023/05/15 09:43:33;;;;;;;13.18;11.20;;;;;;;;;;5072838;28;20024;-77
2023/05/15 09:45:59;;;;;;;12.43;10.77;;;;;;;;;;5092798;28;20390;-77
2023/05/15 09:48:25;;;;;;;15.55;10.77;;;;;;;;;;5092198;28;20028;-77
2023/05/15 09:50:52;;;;;;;13.75;10.88;;;;;;;;;;5092435;28;20028;-77
2023/05/15 09:53:18;;;;;;;11.15;9.95;;;;;;;;;;5093174;28;20020;-77
2023/05/15 09:55:44;;;;;;;11.52;10.00;;;;;;;;;;5092938;28;20032;-77
2023/05/15 09:58:11;;;;;;;12.38;10.95;;;;;;;;;;5085875;28;20052;-77
2023/05/15 10:00:42;;;;;;;14.30;11.07;;;;;;;;;;5089987;28;20032;-77
2023/05/15 10:03:15;;;;;;;11.05;9.45;;;;;;;;;;5084691;28;20389;-77
2023/05/15 10:05:41;;;;;;;13.05;10.45;;;;;;;;;;5078561;28;20035;-77
2023/05/15 10:08:07;;;;;;;13.27;10.57;;;;;;;;;;5079040;28;20107;-77
2023/05/15 10:10:33;;;;;;;11.23;10.02;;;;;;;;;;5092087;28;20113;-77
2023/05/15 10:13:04;;;;;;;11.30;9.98;;;;;;;;;;5096354;28;20055;-77
2023/05/15 10:15:31;;;;;;;13.10;11.17;;;;;;;;;;5015652;28;2128206;-77
2023/05/15 10:17:58;;;;;;;13.75;10.20;;;;;;;;;;5089944;28;20421;-77
2023/05/15 10:20:25;;;;;;;10.93;9.75;;;;;;;;;;5073416;28;20074;-77
2023/05/15 10:22:52;;;;;;;10.68;9.40;;;;;;;;;;5091165;28;20486;-77
2023/05/15 10:25:18;;;;;;;10.68;9.57;;;;;;;;;;5083336;28;20019;-76
2023/05/15 10:27:46;;;;;;;10.13;9.02;;;;;;;;;;5080993;28;20107;-77
2023/05/15 10:30:12;;;;;;;10.82;8.63;;;;;;;;;;5092286;28;20103;-77
2023/05/15 10:32:40;;;;;;;11.15;10.05;;;;;;;;;;5092380;28;20020;-77
2023/05/15 10:35:07;;;;;;;10.73;8.60;;;;;;;;;;5092950;28;20016;-77
2023/05/15 10:37:35;;;;;;;11.48;8.75;;;;;;;;;;5092261;28;20063;-77
2023/05/15 10:40:01;;;;;;;11.77;9.10;;;;;;;;;;5091580;28;20024;-77
2023/05/15 10:42:28;;;;;;;10.35;8.70;;;;;;;;;;5093365;28;20021;-77
2023/05/15 10:44:58;;;;;;;10.77;9.35;;;;;;;;;;5087921;28;20725;-77
2023/05/15 10:47:25;;;;;;;11.40;8.85;;;;;;;;;;5083331;28;20028;-76
2023/05/15 10:49:53;;;;;;;10.50;9.00;;;;;;;;;;5078804;28;20033;-77
2023/05/15 10:52:20;;;;;;;10.57;8.50;;;;;;;;;;5073842;28;20024;-77
2023/05/15 10:54:46;;;;;;;12.55;8.18;;;;;;;;;;5075804;28;20017;-77
2023/05/15 10:57:13;;;;;;;11.65;8.95;;;;;;;;;;5086530;28;20032;-77
2023/05/15 10:59:40;;;;;;;10.95;9.18;;;;;;;;;;5082229;28;20028;-77
2023/05/15 11:02:19;;;;;;;9.85;8.30;;;;;;;;;;5092662;28;20078;-77
2023/05/15 11:04:45;;;;;;;9.93;7.57;;;;;;;;;;5087666;28;20106;-77
2023/05/15 11:07:12;;;;;;;9.10;7.68;;;;;;;;;;5092520;28;20100;-77
2023/05/15 11:09:39;;;;;;;11.88;8.18;;;;;;;;;;5092045;28;20032;-77
2023/05/15 11:12:05;;;;;;;9.13;7.93;;;;;;;;;;5092444;28;20027;-77
2023/05/15 11:14:32;;;;;;;9.95;8.32;;;;;;;;;;5073500;28;20123;-77
2023/05/15 11:16:59;;;;;;;10.77;8.93;;;;;;;;;;5092426;28;20047;-77
2023/05/15 11:19:25;;;;;;;10.63;8.43;;;;;;;;;;5088880;28;20008;-77
2023/05/15 11:22:00;;;;;;;9.75;8.02;;;;;;;;;;5064381;28;20024;-76
2023/05/15 11:24:29;;;;;;;9.05;7.43;;;;;;;;;;5089838;28;20107;-77
2023/05/15 11:26:59;;;;;;;11.35;7.85;;;;;;;;;;5090100;28;20494;-77
2023/05/15 11:29:26;;;;;;;;;;;;;;;;;;5078919;28;20025;-77
2023/05/15 11:31:52;;;;;;;9.18;7.75;;;;;;;;;;5078121;28;19970;-77
2023/05/15 11:34:32;;;;;;;10.05;7.50;;;;;;;;;;5079979;28;20028;-77
2023/05/15 11:36:59;;;;;;;11.07;8.60;;;;;;;;;;5088929;28;21154;-77
2023/05/15 11:39:25;;;;;;;9.98;7.57;;;;;;;;;;5087722;28;20047;-77
2023/05/15 11:41:52;;;;;;;10.82;8.32;;;;;;;;;;5092258;28;20168;-77
2023/05/15 11:44:21;;;;;;;12.25;9.85;;;;;;;;;;5074215;28;20031;-77
2023/05/15 11:46:48;;;;;;;14.65;10.40;;;;;;;;;;5092409;28;20024;-76
2023/05/15 11:49:15;;;;;;;11.68;9.52;;;;;;;;;;5092287;28;20401;-77
2023/05/15 11:51:42;;;;;;;12.48;8.40;;;;;;;;;;5092303;28;20016;-77
2023/05/15 11:54:10;;;;;;;11.35;8.30;;;;;;;;;;5093332;28;20074;-78
2023/05/15 11:56:42;;;;;;;11.25;8.43;;;;;;;;;;5093317;28;20024;-77
2023/05/15 11:59:09;;;;;;;12.88;9.55;;;;;;;;;;5062399;28;20040;-76
2023/05/15 12:01:42;;;;;;;13.05;8.93;;;;;;;;;;5090476;28;20032;-77
2023/05/15 12:04:15;;;;;;;13.77;10.35;;;;;;;;;;5082745;28;20078;-77
2023/05/15 12:06:43;;;;;;;16.15;11.60;;;;;;;;;;5074213;28;20028;-76
2023/05/15 12:09:13;;;;;;;15.07;11.15;;;;;;;;;;5082003;28;20028;-77
2023/05/15 12:11:39;;;;;;;12.73;9.73;;;;;;;;;;5092150;28;20028;-76
2023/05/15 12:14:05;;;;;;;15.43;11.30;;;;;;;;;;5092217;28;20048;-77
2023/05/15 12:16:31;;;;;;;12.45;9.55;;;;;;;;;;5090046;28;20075;-77
2023/05/15 12:18:58;;;;;;;13.30;9.70;;;;;;;;;;5092049;28;20020;-77
2023/05/15 12:21:25;;;;;;;14.60;10.30;;;;;;;;;;5091614;28;20028;-77
2023/05/15 12:23:52;;;;;;;12.95;9.57;;;;;;;;;;5063031;28;20029;-77
2023/05/15 12:26:20;;;;;;;13.25;9.68;;;;;;;;;;5089395;28;20047;-77
2023/05/15 12:28:46;;;;;;;13.23;10.27;;;;;;;;;;5060797;28;20540;-77
2023/05/15 12:31:12;;;;;;;16.25;11.32;;;;;;;;;;5091817;28;20024;-77
2023/05/15 12:33:38;;;;;;;13.75;9.73;;;;;;;;;;5091908;28;20081;-77
2023/05/15 12:36:05;;;;;;;14.40;9.93;;;;;;;;;;5090887;28;20028;-77
2023/05/15 12:38:33;;;;;;;14.40;9.40;;;;;;;;;;5079622;28;20424;-77
2023/05/15 12:41:00;;;;;;;13.80;10.40;;;;;;;;;;5091834;28;20081;-77
2023/05/15 12:43:26;;;;;;;13.00;9.38;;;;;;;;;;5083235;28;20661;-77
2023/05/15 12:45:53;;;;;;;15.00;11.20;;;;;;;;;;5084938;28;20420;-77
2023/05/15 12:48:18;;;;;;;17.48;10.73;;;;;;;;;;5080450;28;20087;-77
2023/05/15 12:50:45;;;;;;;15.15;9.57;;;;;;;;;;5092908;28;20040;-77
2023/05/15 12:53:13;;;;;;;15.48;11.38;;;;;;;;;;5095211;28;20024;-76
2023/05/15 12:55:39;;;;;;;14.95;11.65;;;;;;;;;;5095085;28;20031;-76
2023/05/15 12:58:06;;;;;;;13.88;10.45;;;;;;;;;;5095082;28;20043;-77
2023/05/15 13:00:36;;;;;;;12.60;9.48;;;;;;;;;;5095342;28;20039;-77
2023/05/15 13:03:02;;;;;;;11.25;8.73;;;;;;;;;;5076982;28;20024;-76
2023/05/15 13:05:31;;;;;;;12.65;9.93;;;;;;;;;;5094768;28;20031;-77
2023/05/15 13:07:57;;;;;;;10.07;7.25;;;;;;;;;;5095108;28;20508;-77
2023/05/15 13:10:24;;;;;;;10.27;8.38;;;;;;;;;;5095114;28;20028;-77
2023/05/15 13:12:51;;;;;;;12.15;9.27;;;;;;;;;;5093394;28;20020;-77
2023/05/15 13:15:29;;;;;;;12.35;8.20;;;;;;;;;;5074779;28;20020;-76
2023/05/15 13:17:59;;;;;;;13.32;8.18;;;;;;;;;;5034932;28;20029;-77
2023/05/15 13:20:25;;;;;;;16.20;7.93;;;;;;;;;;5038345;28;20109;-77
2023/05/15 13:22:51;;;;;;;11.98;7.70;;;;;;;;;;5046963;28;20079;-77
2023/05/15 13:25:18;;;;;;;10.52;7.57;;;;;;;;;;5045384;28;20021;-77
2023/05/15 13:27:44;;;;;;;9.98;7.70;;;;;;;;;;5054476;28;20598;-76
2023/05/15 13:30:10;;;;;;;9.60;8.27;;;;;;;;;;5054541;28;20032;-76
2023/05/15 13:32:36;;;;;;;10.77;8.45;;;;;;;;;;5054731;28;20471;-77
2023/05/15 13:35:03;;;;;;;11.85;8.52;;;;;;;;;;5054259;28;20033;-77
2023/05/15 13:37:30;;;;;;;11.75;9.00;;;;;;;;;;5054460;28;20107;-77
2023/05/15 13:39:55;;;;;;;11.65;9.35;;;;;;;;;;5054148;28;20025;-77
2023/05/15 13:42:21;;;;;;;13.10;9.18;;;;;;;;;;5054162;28;20035;-76
2023/05/15 13:44:47;;;;;;;11.63;7.53;;;;;;;;;;5054059;28;20075;-76
2023/05/15 13:47:14;;;;;;;12.55;8.63;;;;;;;;;;5054139;28;20033;-76
2023/05/15 13:49:40;;;;;;;13.98;9.23;;;;;;;;;;5054223;28;20094;-76
2023/05/15 13:52:06;;;;;;;12.20;9.15;;;;;;;;;;5054449;28;20108;-76
2023/05/15 13:54:32;;;;;;;10.93;8.98;;;;;;;;;;5041819;28;20967;-76
2023/05/15 13:56:59;;;;;;;10.77;7.32;;;;;;;;;;5052260;28;20521;-76
2023/05/15 13:59:25;;;;;;;9.93;5.15;;;;;;;;;;5052654;28;20100;-76
2023/05/15 14:01:51;;;;;;;13.25;9.07;;;;;;;;;;5051297;28;20017;-76
2023/05/15 14:04:17;;;;;;;10.65;8.55;;;;;;;;;;5046708;28;20556;-76
2023/05/15 14:06:43;;;;;;;12.27;7.63;;;;;;;;;;5053583;28;20701;-76
2023/05/15 14:09:10;;;;;;;10.93;7.38;;;;;;;;;;5053717;28;20399;-77
2023/05/15 14:11:36;;;;;;;13.23;9.38;;;;;;;;;;5053539;28;20021;-76
2023/05/15 14:14:02;;;;;;;13.82;10.30;;;;;;;;;;5053778;28;20033;-76
2023/05/15 14:16:28;;;;;;;10.45;7.53;;;;;;;;;;5071166;28;20098;-77
2023/05/15 14:18:58;;;;;;;13.57;10.20;;;;;;;;;;5093922;28;20028;-76
2023/05/15 14:21:24;;;;;;;12.53;8.40;;;;;;;;;;5093957;28;20047;-76